createdAt,value
2023-03-06T00:01:52.078Z,21.50
2023-03-06T07:02:20.650Z,14.30
2023-03-06T07:05:03.028Z,13.30
2023-03-06T07:07:39.749Z,16.20
2023-03-06T07:10:16.126Z,16.80
2023-03-06T07:12:49.777Z,14.20
2023-03-06T07:15:30.878Z,13.90
2023-03-06T07:18:01.954Z,57.20
2023-03-06T07:20:47.868Z,27.80
2023-03-06T07:23:19.341Z,12.90
2023-03-06T07:25:47.833Z,10.60
2023-03-06T07:28:51.315Z,13.60
2023-03-06T07:31:40.803Z,11.70
2023-03-06T07:34:13.441Z,19.80
2023-03-06T07:36:47.975Z,13.60
2023-03-06T07:39:32.074Z,13.30
2023-03-06T07:42:07.541Z,15.00
2023-03-06T07:44:39.563Z,16.00
2023-03-06T07:47:16.916Z,12.30
2023-03-06T07:49:49.022Z,13.70
2023-03-06T07:52:22.026Z,12.20
2023-03-06T07:55:05.356Z,14.90
2023-03-06T07:58:09.755Z,12.60
2023-03-06T08:00:51.214Z,10.30
2023-03-06T08:03:24.477Z,11.70
2023-03-06T08:06:13.837Z,9.90
2023-03-06T08:09:20.229Z,10.60
2023-03-06T08:12:09.476Z,13.60
2023-03-06T08:14:53.102Z,10.00
2023-03-06T08:17:41.878Z,15.10
2023-03-06T08:20:22.208Z,12.10
2023-03-06T08:23:01.812Z,15.80
2023-03-06T08:25:59.045Z,12.50
2023-03-06T08:29:48.393Z,15.40
2023-03-06T08:32:24.651Z,10.20
2023-03-06T08:35:20.564Z,11.50
2023-03-06T08:38:32.040Z,10.80
2023-03-06T08:42:04.281Z,11.40
2023-03-06T08:45:15.471Z,9.20
2023-03-06T08:48:21.882Z,10.40
2023-03-06T08:51:32.183Z,10.90
2023-03-06T09:05:56.311Z,9.10
2023-03-06T09:08:36.658Z,11.00
2023-03-06T09:11:46.634Z,9.00
2023-03-06T09:14:37.924Z,9.10
2023-03-06T09:17:57.709Z,8.10
2023-03-06T09:20:35.598Z,7.70
2023-03-06T09:24:04.602Z,11.10
2023-03-06T09:27:23.265Z,10.60
2023-03-06T09:30:06.645Z,12.00
2023-03-06T09:33:34.788Z,9.80
2023-03-06T09:36:30.346Z,11.90
2023-03-06T09:39:24.173Z,9.00
2023-03-06T09:42:41.017Z,6.70
2023-03-06T09:46:23.201Z,7.30
2023-03-06T09:49:57.749Z,9.30
2023-03-06T09:53:38.480Z,7.90
2023-03-06T09:56:20.179Z,10.90
2023-03-06T10:12:56.471Z,8.50
2023-03-06T10:18:43.379Z,9.90
2023-03-06T10:22:28.330Z,9.00
2023-03-06T10:26:29.398Z,10.20
2023-03-06T10:30:02.751Z,11.50
2023-03-06T11:07:11.520Z,11.30
2023-03-06T11:14:20.362Z,9.10
2023-03-06T11:17:59.777Z,9.50
2023-03-06T11:21:21.580Z,13.80
2023-03-06T11:24:44.190Z,9.90
2023-03-06T11:27:57.378Z,10.40
2023-03-06T11:54:02.975Z,7.50
2023-03-06T11:57:28.128Z,5.20
2023-03-06T12:00:45.669Z,7.70
2023-03-06T12:03:50.191Z,9.10
2023-03-06T12:07:22.471Z,9.30
2023-03-06T12:10:51.821Z,7.30
2023-03-06T12:14:30.400Z,5.70
2023-03-06T12:18:00.947Z,5.70
2023-03-06T12:21:55.766Z,5.60
2023-03-06T12:24:52.872Z,5.70
2023-03-06T12:28:15.372Z,7.90
2023-03-06T12:31:41.331Z,8.90
2023-03-06T12:35:04.087Z,7.30
2023-03-06T12:38:55.088Z,4.70
2023-03-06T12:41:48.205Z,7.60
2023-03-06T12:45:20.797Z,11.40
2023-03-06T12:49:31.453Z,11.20
2023-03-06T12:53:03.436Z,11.90
2023-03-06T12:55:55.865Z,8.20
2023-03-06T12:58:30.229Z,12.10
2023-03-06T13:01:20.126Z,9.20
2023-03-06T13:04:56.451Z,11.80
2023-03-06T13:08:22.712Z,10.20
2023-03-06T14:04:59.166Z,8.70
2023-03-06T14:08:22.883Z,7.80
2023-03-06T14:11:41.707Z,9.20
2023-03-06T14:14:20.659Z,11.10
2023-03-06T14:17:38.908Z,15.60
2023-03-06T14:20:40.183Z,9.60
2023-03-06T14:24:01.664Z,12.30
2023-03-06T14:26:40.334Z,15.10
2023-03-06T14:29:24.069Z,10.30
2023-03-06T14:32:14.542Z,10.90
2023-03-06T14:34:47.329Z,9.60
2023-03-06T14:37:35.154Z,11.80
2023-03-06T14:40:56.184Z,15.00
2023-03-06T14:43:50.543Z,15.50
2023-03-06T14:46:42.929Z,16.20
2023-03-06T14:49:34.039Z,15.20
2023-03-06T14:52:25.681Z,15.40
2023-03-06T14:55:42.453Z,9.20
2023-03-06T14:59:17.878Z,10.40
2023-03-06T15:01:57.159Z,13.30
2023-03-06T15:05:25.090Z,18.50
2023-03-06T15:09:14.080Z,10.50
2023-03-06T15:13:01.840Z,12.40
2023-03-06T15:16:42.718Z,14.60
2023-03-06T15:19:26.822Z,13.90
2023-03-06T15:22:50.856Z,14.00
2023-03-06T15:26:02.177Z,17.60
2023-03-06T15:29:09.326Z,17.70
2023-03-06T16:12:39.572Z,22.20
2023-03-06T16:15:22.667Z,27.10
2023-03-06T16:18:35.112Z,22.50
2023-03-06T16:21:39.039Z,23.80
2023-03-06T16:24:38.405Z,24.90
2023-03-06T16:28:32.438Z,19.20
2023-03-06T16:32:04.796Z,24.40
2023-03-06T16:35:30.822Z,30.20
2023-03-06T16:38:04.918Z,56.70
2023-03-06T16:41:10.229Z,78.70
2023-03-06T16:44:15.791Z,39.20
2023-03-06T16:47:07.529Z,28.10
2023-03-06T16:50:22.340Z,30.20
2023-03-06T16:53:44.289Z,29.70
2023-03-06T16:57:11.160Z,23.40
2023-03-06T17:00:43.136Z,27.90
2023-03-06T17:04:21.065Z,28.00
2023-03-06T17:06:53.341Z,21.20
2023-03-06T17:09:57.652Z,26.50
2023-03-06T17:13:13.204Z,25.90
2023-03-06T17:16:51.681Z,24.90
2023-03-06T17:20:41.948Z,53.50
2023-03-06T17:23:52.692Z,22.70
2023-03-06T17:27:41.695Z,28.40
2023-03-06T17:30:51.125Z,48.70
2023-03-06T17:37:59.569Z,35.50
2023-03-06T18:19:48.515Z,45.50
2023-03-06T18:22:30.418Z,48.40
2023-03-06T18:25:52.783Z,44.10
2023-03-06T18:29:04.632Z,38.70
2023-03-06T18:31:50.055Z,30.10
2023-03-06T18:34:55.104Z,27.40
2023-03-06T18:37:26.013Z,35.90
2023-03-06T18:40:17.148Z,52.00
2023-03-06T18:42:48.109Z,34.20
2023-03-06T18:45:59.458Z,47.60
2023-03-06T18:49:24.718Z,36.60
2023-03-06T18:52:57.324Z,28.80
2023-03-06T18:56:29.789Z,28.00
2023-03-06T18:59:51.380Z,27.10
2023-03-06T19:03:40.641Z,25.10
2023-03-06T19:07:28.836Z,22.40
2023-03-06T19:11:02.599Z,24.90
2023-03-06T19:45:54.072Z,26.70
2023-03-06T19:48:43.700Z,27.90
2023-03-06T19:52:06.728Z,20.20
2023-03-06T19:55:13.763Z,23.00
2023-03-06T19:58:54.798Z,29.40
2023-03-06T20:02:43.767Z,28.50
2023-03-06T20:06:13.018Z,24.90
2023-03-06T20:09:47.850Z,25.60
2023-03-06T20:13:21.365Z,23.40
2023-03-06T20:17:09.693Z,23.90
2023-03-06T20:20:59.496Z,25.30
2023-03-06T20:24:17.971Z,22.90
2023-03-06T20:39:14.695Z,26.70
2023-03-06T20:42:44.997Z,23.60
2023-03-06T20:48:15.440Z,23.60
2023-03-06T20:51:39.328Z,24.10
2023-03-06T20:54:30.717Z,33.80
2023-03-06T20:57:53.618Z,24.40
2023-03-06T21:00:49.287Z,25.20
2023-03-06T21:03:52.607Z,25.60
2023-03-06T21:06:47.682Z,24.70
2023-03-06T21:09:58.503Z,24.80
2023-03-06T21:12:41.398Z,23.40
2023-03-06T21:15:30.891Z,26.30
2023-03-06T21:18:22.935Z,28.10
2023-03-06T21:21:26.712Z,28.30
2023-03-06T21:24:48.343Z,27.60
2023-03-06T21:28:20.027Z,29.50
2023-03-06T21:31:19.852Z,39.30
2023-03-06T21:34:48.712Z,29.60
2023-03-06T21:38:13.631Z,34.80
2023-03-06T21:41:02.533Z,36.10
2023-03-06T21:44:47.690Z,47.00
2023-03-06T21:48:19.670Z,47.10
2023-03-06T21:52:11.795Z,47.10
2023-03-06T21:55:33.817Z,46.20
2023-03-06T21:59:44.338Z,26.10
2023-03-06T22:03:02.794Z,27.40
2023-03-06T22:06:10.407Z,28.90
2023-03-06T22:09:57.917Z,29.20
2023-03-06T22:12:47.436Z,30.70
2023-03-06T22:15:56.412Z,31.50
2023-03-06T22:18:33.764Z,28.70
2023-03-06T22:22:12.580Z,27.90
2023-03-06T22:25:36.141Z,29.60
2023-03-06T22:28:46.841Z,33.40
2023-03-06T22:34:23.078Z,33.90
2023-03-06T22:36:58.633Z,28.20
2023-03-06T22:39:30.231Z,27.70
2023-03-06T22:42:18.772Z,42.10
2023-03-06T22:45:18.366Z,27.70
2023-03-06T22:48:36.165Z,34.40
2023-03-06T22:52:23.173Z,27.80
2023-03-06T22:55:33.867Z,24.00
2023-03-06T22:58:43.959Z,30.80
2023-03-06T23:01:22.760Z,23.40
2023-03-06T23:04:17.571Z,24.70
2023-03-06T23:07:07.951Z,29.40
2023-03-06T23:10:18.192Z,25.40
2023-03-06T23:13:25.710Z,23.80
2023-03-06T23:16:33.853Z,42.50
2023-03-06T23:20:10.195Z,46.50
2023-03-06T23:23:15.912Z,25.00
2023-03-06T23:26:24.011Z,30.90
2023-03-06T23:29:12.487Z,29.00
2023-03-06T23:32:39.880Z,28.90
2023-03-06T23:35:09.569Z,24.00
2023-03-06T23:38:31.613Z,27.70
2023-03-06T23:41:43.091Z,32.90
2023-03-06T23:44:56.959Z,30.90
2023-03-06T23:47:51.744Z,25.10
2023-03-06T23:51:29.765Z,27.20
2023-03-06T23:54:32.488Z,25.90
2023-03-06T23:57:22.965Z,24.70
